<?xml version='1.0' encoding='UTF-8'?><gpx version="1.1" creator="JPX - https://github.com/jenetics/jpx" xmlns="http://www.topografix.com/GPX/1/1"><trk><trkseg><trkpt lat="42.971337504325966" lon="12.118012334790425"><ele>302.00000000000006</ele><time>2026-04-12T12:39:04.999Z</time></trkpt><trkpt lat="42.971321425284074" lon="12.118109277692238"><ele>302.0</ele><time>2026-04-12T12:39:09.999Z</time></trkpt><trkpt lat="42.97127344214067" lon="12.118179275884774"><ele>302.0</ele><time>2026-04-12T12:39:14.999Z</time></trkpt><trkpt lat="42.971225716739575" lon="12.118246200622172"><ele>302.0</ele><time>2026-04-12T12:39:19.999Z</time></trkpt><trkpt lat="42.97117516693565" lon="12.118317448118042"><ele>302.0</ele><time>2026-04-12T12:39:25.999Z</time></trkpt><trkpt lat="42.97112302464353" lon="12.118372559602346"><ele>302.00000000000006</ele><time>2026-04-12T12:39:29.999Z</time></trkpt><trkpt lat="42.97106711354574" lon="12.11843568055896"><ele>302.0</ele><time>2026-04-12T12:39:34.999Z</time></trkpt><trkpt lat="42.97101165660007" lon="12.118498551953849"><ele>302.5714285714286</ele><time>2026-04-12T12:39:39.999Z</time></trkpt><trkpt lat="42.97095519079433" lon="12.11855820529456"><ele>303.14285714285717</ele><time>2026-04-12T12:39:44.999Z</time></trkpt><trkpt lat="42.97090672524787" lon="12.118614233882811"><ele>303.7142857142857</ele><time>2026-04-12T12:39:49.999Z</time></trkpt><trkpt lat="42.970843593543506" lon="12.118631102783366"><ele>304.28571428571433</ele><time>2026-04-12T12:39:55.999Z</time></trkpt><trkpt lat="42.970791859050756" lon="12.118691291443081"><ele>304.8571428571429</ele><time>2026-04-12T12:40:04.999Z</time></trkpt><trkpt lat="42.97076149220806" lon="12.118774260736306"><ele>305.42857142857144</ele><time>2026-04-12T12:40:09.999Z</time></trkpt><trkpt lat="42.97071583633868" lon="12.118833645155648"><ele>306.0</ele><time>2026-04-12T12:40:14.999Z</time></trkpt><trkpt lat="42.97066264761086" lon="12.118884481140098"><ele>306.0</ele><time>2026-04-12T12:40:20.999Z</time></trkpt><trkpt lat="42.97060462097893" lon="12.118917862306388"><ele>306.0</ele><time>2026-04-12T12:40:27.999Z</time></trkpt><trkpt lat="42.9705452183414" lon="12.118957278635525"><ele>306.0</ele><time>2026-04-12T12:40:32.999Z</time></trkpt><trkpt lat="42.9704794494435" lon="12.118998723690181"><ele>306.0</ele><time>2026-04-12T12:40:38.999Z</time></trkpt><trkpt lat="42.97042190241758" lon="12.119034471105289"><ele>306.0</ele><time>2026-04-12T12:40:43.999Z</time></trkpt><trkpt lat="42.97034483224339" lon="12.11905508164628"><ele>306.0</ele><time>2026-04-12T12:40:49.999Z</time></trkpt><trkpt lat="42.97027993763835" lon="12.119048902848906"><ele>306.0</ele><time>2026-04-12T12:40:56.999Z</time></trkpt><trkpt lat="42.97020583902739" lon="12.119066194468296"><ele>307.2857142857143</ele><time>2026-04-12T12:41:03.999Z</time></trkpt><trkpt lat="42.97013615759631" lon="12.119075585113693"><ele>308.57142857142856</ele><time>2026-04-12T12:41:08.999Z</time></trkpt><trkpt lat="42.970058962041676" lon="12.1190719976638"><ele>309.8571428571429</ele><time>2026-04-12T12:41:14.999Z</time></trkpt><trkpt lat="42.969996070260905" lon="12.11910350965865"><ele>311.1428571428571</ele><time>2026-04-12T12:41:19.999Z</time></trkpt><trkpt lat="42.969937973148035" lon="12.119139083422784"><ele>312.42857142857144</ele><time>2026-04-12T12:41:23.999Z</time></trkpt><trkpt lat="42.969876094292935" lon="12.119157293154377"><ele>313.7142857142857</ele><time>2026-04-12T12:41:28.999Z</time></trkpt><trkpt lat="42.96980829314521" lon="12.119189830911758"><ele>315.0</ele><time>2026-04-12T12:41:33.999Z</time></trkpt><trkpt lat="42.96974984716279" lon="12.119233394567122"><ele>315.0</ele><time>2026-04-12T12:41:38.999Z</time></trkpt><trkpt lat="42.96969028895059" lon="12.119274715082975"><ele>315.0</ele><time>2026-04-12T12:41:44.999Z</time></trkpt><trkpt lat="42.96963834105168" lon="12.119327663795936"><ele>315.0</ele><time>2026-04-12T12:41:49.999Z</time></trkpt><trkpt lat="42.969594852749175" lon="12.119393269167917"><ele>315.0</ele><time>2026-04-12T12:41:54.999Z</time></trkpt><trkpt lat="42.96955369441093" lon="12.119465076727485"><ele>315.0</ele><time>2026-04-12T12:41:59.999Z</time></trkpt><trkpt lat="42.9695009404387" lon="12.119526746773454"><ele>315.0</ele><time>2026-04-12T12:42:05.999Z</time></trkpt><trkpt lat="42.96945098114664" lon="12.11958125224101"><ele>315.0</ele><time>2026-04-12T12:42:16.999Z</time></trkpt><trkpt lat="42.9694082422033" lon="12.11966412454088"><ele>315.0</ele><time>2026-04-12T12:42:23Z</time></trkpt><trkpt lat="42.96938189079672" lon="12.119760497820007"><ele>315.0</ele><time>2026-04-12T12:42:28Z</time></trkpt><trkpt lat="42.96934425766058" lon="12.119842211974898"><ele>315.0</ele><time>2026-04-12T12:42:33Z</time></trkpt><trkpt lat="42.96931169228532" lon="12.11991890333964"><ele>315.0</ele><time>2026-04-12T12:42:37Z</time></trkpt><trkpt lat="42.969246229209084" lon="12.119965086669726"><ele>315.0</ele><time>2026-04-12T12:42:43Z</time></trkpt><trkpt lat="42.96917197714163" lon="12.119964174599346"><ele>315.0</ele><time>2026-04-12T12:42:47.999Z</time></trkpt><trkpt lat="42.96921121261274" lon="12.120045632924985"><ele>315.0</ele><time>2026-04-12T12:43:17.999Z</time></trkpt><trkpt lat="42.96914800957465" lon="12.120065400000678"><ele>315.7142857142857</ele><time>2026-04-12T12:43:30.999Z</time></trkpt><trkpt lat="42.9691037127127" lon="12.12015652566914"><ele>316.42857142857144</ele><time>2026-04-12T12:44:23.999Z</time></trkpt><trkpt lat="42.96916800656061" lon="12.120195798189311"><ele>317.1428571428571</ele><time>2026-04-12T12:44:34Z</time></trkpt><trkpt lat="42.96919269979765" lon="12.120277038722055"><ele>317.8571428571429</ele><time>2026-04-12T12:44:40Z</time></trkpt><trkpt lat="42.96917140435336" lon="12.12036665172503"><ele>318.57142857142856</ele><time>2026-04-12T12:44:46Z</time></trkpt><trkpt lat="42.96912159603737" lon="12.120435920315728"><ele>319.2857142857143</ele><time>2026-04-12T12:44:52Z</time></trkpt><trkpt lat="42.969070024868124" lon="12.120506558290089"><ele>320.0</ele><time>2026-04-12T12:44:58Z</time></trkpt><trkpt lat="42.969029208315945" lon="12.120600554289465"><ele>320.0</ele><time>2026-04-12T12:45:03.999Z</time></trkpt><trkpt lat="42.96899341144179" lon="12.120689039474073"><ele>320.0</ele><time>2026-04-12T12:45:11.999Z</time></trkpt><trkpt lat="42.96893227786704" lon="12.120754259878925"><ele>320.0</ele><time>2026-04-12T12:45:16.999Z</time></trkpt><trkpt lat="42.968891749296596" lon="12.12082601185829"><ele>320.0</ele><time>2026-04-12T12:45:21.999Z</time></trkpt><trkpt lat="42.968848839480636" lon="12.120907116692363"><ele>320.0</ele><time>2026-04-12T12:45:27.999Z</time></trkpt><trkpt lat="42.96879925701256" lon="12.120965003618318"><ele>320.0</ele><time>2026-04-12T12:45:32.999Z</time></trkpt><trkpt lat="42.96873169443818" lon="12.120998733576732"><ele>320.0</ele><time>2026-04-12T12:45:38.999Z</time></trkpt><trkpt lat="42.96866301500754" lon="12.120995860035697"><ele>321.0</ele><time>2026-04-12T12:45:43.999Z</time></trkpt><trkpt lat="42.968612049170886" lon="12.121051792039488"><ele>322.0</ele><time>2026-04-12T12:46:16.999Z</time></trkpt><trkpt lat="42.968549420021574" lon="12.121061137954577"><ele>323.0</ele><time>2026-04-12T12:46:39.001Z</time></trkpt><trkpt lat="42.96849880356648" lon="12.12113593430341"><ele>324.0</ele><time>2026-04-12T12:46:59.001Z</time></trkpt><trkpt lat="42.96843449951702" lon="12.121154850350338"><ele>325.0</ele><time>2026-04-12T12:47:43Z</time></trkpt><trkpt lat="42.9684134065159" lon="12.121249067309085"><ele>326.0</ele><time>2026-04-12T12:47:53Z</time></trkpt><trkpt lat="42.9683592744115" lon="12.121305881829137"><ele>327.0</ele><time>2026-04-12T12:47:58Z</time></trkpt><trkpt lat="42.96829852953734" lon="12.12134357908319"><ele>327.0</ele><time>2026-04-12T12:48:10Z</time></trkpt><trkpt lat="42.9682290918547" lon="12.121419705252869"><ele>327.0</ele><time>2026-04-12T12:48:31Z</time></trkpt><trkpt lat="42.96820791399417" lon="12.121513296875989"><ele>327.0</ele><time>2026-04-12T12:49:06.001Z</time></trkpt><trkpt lat="42.968145128699334" lon="12.121521981622974"><ele>327.0</ele><time>2026-04-12T12:50:27Z</time></trkpt><trkpt lat="42.968220602743244" lon="12.12155770908031"><ele>327.0</ele><time>2026-04-12T12:51:46Z</time></trkpt><trkpt lat="42.9681820585728" lon="12.121485557802588"><ele>327.0</ele><time>2026-04-12T12:52:06Z</time></trkpt><trkpt lat="42.96811499570776" lon="12.121484213196188"><ele>327.0</ele><time>2026-04-12T12:52:30Z</time></trkpt><trkpt lat="42.9680513877999" lon="12.121526043702328"><ele>327.0</ele><time>2026-04-12T12:55:16Z</time></trkpt><trkpt lat="42.96811600624478" lon="12.121508559477052"><ele>327.0</ele><time>2026-04-12T12:56:00Z</time></trkpt><trkpt lat="42.96810322895419" lon="12.121418433116439"><ele>327.0</ele><time>2026-04-12T12:56:30Z</time></trkpt><trkpt lat="42.96805261594047" lon="12.121338400639269"><ele>327.0</ele><time>2026-04-12T13:00:36.999Z</time></trkpt><trkpt lat="42.96802894918779" lon="12.121248012429406"><ele>327.0</ele><time>2026-04-12T13:03:56Z</time></trkpt><trkpt lat="42.96796224127284" lon="12.12122499636554"><ele>327.0</ele><time>2026-04-12T13:05:20.999Z</time></trkpt><trkpt lat="42.96789743231429" lon="12.121193248806389"><ele>327.0</ele><time>2026-04-12T13:06:42.999Z</time></trkpt><trkpt lat="42.96795975137442" lon="12.121175406164856"><ele>327.0</ele><time>2026-04-12T13:06:53.999Z</time></trkpt><trkpt lat="42.9679013529429" lon="12.1212444520788"><ele>327.0</ele><time>2026-04-12T13:08:13Z</time></trkpt><trkpt lat="42.96794529518226" lon="12.121168668762833"><ele>327.0</ele><time>2026-04-12T13:09:18.999Z</time></trkpt><trkpt lat="42.9678813669459" lon="12.121234175200568"><ele>327.0</ele><time>2026-04-12T13:10:25.999Z</time></trkpt><trkpt lat="42.9678518145182" lon="12.121321566331153"><ele>327.0</ele><time>2026-04-12T13:12:41.999Z</time></trkpt><trkpt lat="42.96783053783433" lon="12.121402578643913"><ele>327.0</ele><time>2026-04-12T13:15:44.999Z</time></trkpt><trkpt lat="42.96790188921324" lon="12.121310475880252"><ele>327.0</ele><time>2026-04-12T13:16:18Z</time></trkpt><trkpt lat="42.96785052983035" lon="12.121379703855476"><ele>327.0</ele><time>2026-04-12T13:16:35Z</time></trkpt><trkpt lat="42.96783142856025" lon="12.12146179520892"><ele>327.0</ele><time>2026-04-12T13:17:29.999Z</time></trkpt><trkpt lat="42.96776625133476" lon="12.121501122559035"><ele>327.0</ele><time>2026-04-12T13:18:30Z</time></trkpt><trkpt lat="42.967767177193934" lon="12.121588974162751"><ele>327.0</ele><time>2026-04-12T13:19:15.999Z</time></trkpt><trkpt lat="42.96778560891341" lon="12.12149334152674"><ele>327.0</ele><time>2026-04-12T13:20:25Z</time></trkpt><trkpt lat="42.96776913014237" lon="12.121581242204764"><ele>327.0</ele><time>2026-04-12T13:21:28.999Z</time></trkpt><trkpt lat="42.96770708552726" lon="12.12155844991188"><ele>327.0</ele><time>2026-04-12T13:33:41.999Z</time></trkpt><trkpt lat="42.96765018165922" lon="12.121611814918047"><ele>327.0</ele><time>2026-04-12T13:33:50.999Z</time></trkpt><trkpt lat="42.96771170802476" lon="12.121583503847475"><ele>327.0</ele><time>2026-04-12T13:36:06.999Z</time></trkpt><trkpt lat="42.96775703472909" lon="12.121511223510838"><ele>327.0</ele><time>2026-04-12T13:37:48.999Z</time></trkpt><trkpt lat="42.967695059938386" lon="12.121563165143233"><ele>327.0</ele><time>2026-04-12T13:39:27.999Z</time></trkpt><trkpt lat="42.96764329962733" lon="12.121651136274833"><ele>327.0</ele><time>2026-04-12T13:40:41.999Z</time></trkpt><trkpt lat="42.96757929597344" lon="12.12166555451577"><ele>327.0</ele><time>2026-04-12T13:42:55.999Z</time></trkpt><trkpt lat="42.96749546795565" lon="12.12170411529648"><ele>328.0</ele><time>2026-04-12T13:45:54.999Z</time></trkpt><trkpt lat="42.96742742141064" lon="12.121731183259572"><ele>329.0</ele><time>2026-04-12T13:49:05.999Z</time></trkpt><trkpt lat="42.96743124263006" lon="12.121825606987523"><ele>330.0</ele><time>2026-04-12T13:49:37Z</time></trkpt><trkpt lat="42.96736723762328" lon="12.121811794932581"><ele>331.0</ele><time>2026-04-12T13:53:42.001Z</time></trkpt><trkpt lat="42.96741429336784" lon="12.121883580645967"><ele>332.0</ele><time>2026-04-12T13:54:32Z</time></trkpt><trkpt lat="42.967350729449784" lon="12.121895126138234"><ele>333.0</ele><time>2026-04-12T13:56:26Z</time></trkpt><trkpt lat="42.96728251973682" lon="12.121876509227151"><ele>334.0</ele><time>2026-04-12T13:59:26.999Z</time></trkpt><trkpt lat="42.967345910757736" lon="12.121921293381522"><ele>334.0</ele><time>2026-04-12T13:59:57Z</time></trkpt><trkpt lat="42.96737280540604" lon="12.121838571627794"><ele>334.0</ele><time>2026-04-12T14:00:32Z</time></trkpt><trkpt lat="42.967324028141036" lon="12.121894165892163"><ele>334.0</ele><time>2026-04-12T14:01:41.999Z</time></trkpt><trkpt lat="42.96727729058008" lon="12.121960350838695"><ele>334.0</ele><time>2026-04-12T14:02:08Z</time></trkpt><trkpt lat="42.96721324985346" lon="12.122036195363453"><ele>334.0</ele><time>2026-04-12T14:05:58.999Z</time></trkpt><trkpt lat="42.96716356146314" lon="12.122091170254393"><ele>334.0</ele><time>2026-04-12T14:06:35Z</time></trkpt><trkpt lat="42.967098522143374" lon="12.12212276156655"><ele>334.0</ele><time>2026-04-12T14:07:22Z</time></trkpt></trkseg></trk></gpx>